createdAt,value
2019-01-02T00:01:28.672Z,99.10
2019-01-02T00:03:56.949Z,99.10
2019-01-02T00:06:24.909Z,99.10
2019-01-02T00:08:53.089Z,99.20
2019-01-02T00:11:20.963Z,99.50
2019-01-02T00:13:49.253Z,99.70
2019-01-02T00:16:17.256Z,99.10
2019-01-02T00:18:45.185Z,98.60
2019-01-02T00:21:13.141Z,98.30
2019-01-02T00:23:41.041Z,98.20
2019-01-02T00:26:08.940Z,98.00
2019-01-02T00:28:36.852Z,98.00
2019-01-02T00:31:05.110Z,98.10
2019-01-02T00:33:33.064Z,98.10
2019-01-02T00:36:01.459Z,98.10
2019-01-02T00:38:29.348Z,98.20
2019-01-02T00:40:57.683Z,98.10
2019-01-02T00:43:25.585Z,98.00
2019-01-02T00:45:53.990Z,97.90
2019-01-02T00:48:21.919Z,97.90
2019-01-02T00:50:50.283Z,97.80
2019-01-02T00:53:18.281Z,97.40
2019-01-02T00:55:46.421Z,97.30
2019-01-02T00:58:14.649Z,97.40
2019-01-02T01:00:42.814Z,97.60
2019-01-02T01:03:10.798Z,98.10
2019-01-02T01:05:39.048Z,98.40
2019-01-02T01:08:06.959Z,98.60
2019-01-02T01:10:34.936Z,98.70
2019-01-02T01:13:02.949Z,98.70
2019-01-02T01:15:30.899Z,98.70
2019-01-02T01:17:58.847Z,98.80
2019-01-02T01:20:26.748Z,98.80
2019-01-02T01:22:54.739Z,98.80
2019-01-02T01:25:23.450Z,98.80
2019-01-02T01:27:51.352Z,98.90
2019-01-02T01:30:19.607Z,98.90
2019-01-02T01:32:47.953Z,98.90
2019-01-02T01:35:16.581Z,99.10
2019-01-02T01:37:46.425Z,98.50
2019-01-02T01:40:14.317Z,98.30
2019-01-02T01:42:42.213Z,98.20
2019-01-02T01:45:10.293Z,98.00
2019-01-02T01:47:38.188Z,96.50
2019-01-02T01:50:07.012Z,95.70
2019-01-02T01:52:34.909Z,95.80
2019-01-02T01:55:02.854Z,96.10
2019-01-02T01:57:30.781Z,96.40
2019-01-02T01:59:58.692Z,96.60
2019-01-02T02:02:27.040Z,96.80
2019-01-02T02:04:55.497Z,96.90
2019-01-02T02:07:23.376Z,96.80
2019-01-02T02:09:52.207Z,97.00
2019-01-02T02:12:20.224Z,97.10
2019-01-02T02:14:48.513Z,97.10
2019-01-02T02:17:16.379Z,97.00
2019-01-02T02:19:44.279Z,97.00
2019-01-02T02:22:12.424Z,97.10
2019-01-02T02:24:40.418Z,97.20
2019-01-02T02:27:08.580Z,97.30
2019-01-02T02:29:36.493Z,97.50
2019-01-02T02:32:04.449Z,97.60
2019-01-02T02:34:32.415Z,97.70
2019-01-02T02:37:00.280Z,97.80
2019-01-02T02:39:28.389Z,97.80
2019-01-02T02:41:57.564Z,97.90
2019-01-02T02:44:25.761Z,97.90
2019-01-02T02:46:53.911Z,97.90
2019-01-02T02:49:21.800Z,97.90
2019-01-02T02:51:49.965Z,98.00
2019-01-02T02:54:18.442Z,98.00
2019-01-02T02:56:46.688Z,98.10
2019-01-02T02:59:15.051Z,98.10
2019-01-02T03:01:43.409Z,98.10
2019-01-02T03:04:11.793Z,98.20
2019-01-02T03:06:39.979Z,98.30
2019-01-02T03:09:08.756Z,98.20
2019-01-02T03:11:36.631Z,98.50
2019-01-02T03:14:04.600Z,98.40
2019-01-02T03:16:32.754Z,98.40
2019-01-02T03:19:01.169Z,98.40
2019-01-02T03:21:29.421Z,98.40
2019-01-02T03:23:57.708Z,98.40
2019-01-02T03:26:25.619Z,98.50
2019-01-02T03:28:53.602Z,98.50
2019-01-02T03:31:21.655Z,98.50
2019-01-02T03:33:49.823Z,98.50
2019-01-02T03:36:17.711Z,98.60
2019-01-02T03:38:45.600Z,98.60
2019-01-02T03:41:13.503Z,98.70
2019-01-02T03:43:41.392Z,98.70
2019-01-02T03:46:09.267Z,98.60
2019-01-02T03:48:37.746Z,98.40
2019-01-02T03:51:06.007Z,98.30
2019-01-02T03:53:33.961Z,98.30
2019-01-02T03:56:01.886Z,98.20
2019-01-02T03:58:29.772Z,98.10
2019-01-02T04:00:57.684Z,97.80
2019-01-02T04:03:25.560Z,97.50
2019-01-02T04:05:53.573Z,97.00
2019-01-02T04:08:21.453Z,96.60
2019-01-02T04:10:49.354Z,96.30
2019-01-02T04:13:17.285Z,95.90
2019-01-02T04:15:45.251Z,95.90
2019-01-02T04:18:13.210Z,96.00
2019-01-02T04:20:41.099Z,96.00
2019-01-02T04:23:09.051Z,96.30
2019-01-02T04:25:36.959Z,96.50
2019-01-02T04:28:04.859Z,96.60
2019-01-02T04:30:32.760Z,96.80
2019-01-02T04:33:00.643Z,97.00
2019-01-02T04:35:28.544Z,97.30
2019-01-02T04:37:56.417Z,97.40
2019-01-02T04:40:24.353Z,97.50
2019-01-02T04:42:52.257Z,97.20
2019-01-02T04:45:20.248Z,97.10
2019-01-02T04:47:48.114Z,96.90
2019-01-02T04:50:16.012Z,96.70
2019-01-02T04:52:43.889Z,96.70
2019-01-02T04:55:11.892Z,96.70
2019-01-02T04:57:39.763Z,96.70
2019-01-02T05:00:09.760Z,96.50
2019-01-02T05:02:37.713Z,96.60
2019-01-02T05:05:05.776Z,96.60
2019-01-02T05:07:33.663Z,96.70
2019-01-02T05:10:01.671Z,96.70
2019-01-02T05:12:29.545Z,96.90
2019-01-02T05:14:57.471Z,96.90
2019-01-02T05:17:25.634Z,96.70
2019-01-02T05:19:53.511Z,96.70
2019-01-02T05:22:21.471Z,96.70
2019-01-02T05:24:49.353Z,96.80
2019-01-02T05:27:17.489Z,96.10
2019-01-02T05:29:45.544Z,95.00
2019-01-02T05:32:13.437Z,94.80
2019-01-02T05:34:41.324Z,94.70
2019-01-02T05:37:09.212Z,94.90
2019-01-02T05:39:37.096Z,95.00
2019-01-02T05:42:05.065Z,95.20
2019-01-02T05:44:32.945Z,95.30
2019-01-02T05:47:00.848Z,95.30
2019-01-02T05:49:28.736Z,95.20
2019-01-02T05:51:56.638Z,95.50
2019-01-02T05:54:24.524Z,95.30
2019-01-02T05:56:52.849Z,95.40
2019-01-02T05:59:20.745Z,95.00
2019-01-02T06:01:51.499Z,94.80
2019-01-02T06:04:19.425Z,94.50
2019-01-02T06:06:47.311Z,93.90
2019-01-02T06:09:15.238Z,93.80
2019-01-02T06:11:43.177Z,93.90
2019-01-02T06:14:11.309Z,94.20
2019-01-02T06:16:39.500Z,93.50
2019-01-02T06:19:07.567Z,93.50
2019-01-02T06:21:35.686Z,93.10
2019-01-02T06:24:03.943Z,92.90
2019-01-02T06:26:32.081Z,93.00
2019-01-02T06:28:59.977Z,93.10
2019-01-02T06:31:28.028Z,93.10
2019-01-02T06:33:55.981Z,93.10
2019-01-02T06:36:24.000Z,93.70
2019-01-02T06:38:51.880Z,94.20
2019-01-02T06:41:19.808Z,94.60
2019-01-02T06:43:48.195Z,94.80
2019-01-02T06:46:16.216Z,94.90
2019-01-02T06:48:44.089Z,94.20
2019-01-02T06:51:12.082Z,93.60
2019-01-02T06:53:39.981Z,93.20
2019-01-02T06:56:08.125Z,93.00
2019-01-02T06:58:35.993Z,92.80
2019-01-02T07:01:03.945Z,92.90
2019-01-02T07:03:31.954Z,92.80
2019-01-02T07:05:59.940Z,93.00
2019-01-02T07:08:27.840Z,93.50
2019-01-02T07:10:55.708Z,93.20
2019-01-02T07:13:23.760Z,93.20
2019-01-02T07:15:51.712Z,93.10
2019-01-02T07:18:19.633Z,93.50
2019-01-02T07:20:47.526Z,93.70
2019-01-02T07:23:15.431Z,93.60
2019-01-02T07:25:43.452Z,93.00
2019-01-02T07:28:11.476Z,92.90
2019-01-02T07:30:39.357Z,93.00
2019-01-02T07:33:07.389Z,93.00
2019-01-02T07:36:00.915Z,92.90
2019-01-02T07:38:48.276Z,92.90
2019-01-02T07:41:38.561Z,93.10
2019-01-02T07:44:25.996Z,93.30
2019-01-02T07:47:19.167Z,93.30
2019-01-02T07:50:06.278Z,93.40
2019-01-02T07:52:55.264Z,93.30
2019-01-02T07:55:54.808Z,93.00
2019-01-02T07:58:40.637Z,92.50
2019-01-02T08:01:34.637Z,90.80
2019-01-02T08:04:21.782Z,89.70
2019-01-02T08:07:02.928Z,89.40
2019-01-02T08:09:40.086Z,88.40
2019-01-02T08:12:27.203Z,89.30
2019-01-02T08:15:13.162Z,88.70
2019-01-02T08:17:55.130Z,88.20
2019-01-02T08:20:41.557Z,87.80
2019-01-02T08:23:23.718Z,87.60
2019-01-02T08:26:09.820Z,89.30
2019-01-02T08:29:03.044Z,89.80
2019-01-02T08:32:05.309Z,89.10
2019-01-02T08:34:55.278Z,88.70
2019-01-02T08:37:27.988Z,87.20
2019-01-02T08:40:15.105Z,88.50
2019-01-02T08:42:47.777Z,88.50
2019-01-02T08:45:40.834Z,86.10
2019-01-02T08:48:33.765Z,86.70
2019-01-02T08:51:20.039Z,84.50
2019-01-02T08:54:10.268Z,84.60
2019-01-02T08:56:56.461Z,84.70
2019-01-02T08:59:32.593Z,83.80
2019-01-02T09:02:22.840Z,83.70
2019-01-02T09:05:19.064Z,84.60
2019-01-02T09:07:54.076Z,83.80
2019-01-02T09:10:47.653Z,83.00
2019-01-02T09:13:21.145Z,83.50
2019-01-02T09:16:08.261Z,82.90
2019-01-02T09:18:43.353Z,83.30
2019-01-02T09:21:42.523Z,82.20
2019-01-02T09:24:32.261Z,82.60
2019-01-02T09:27:19.795Z,83.90
2019-01-02T09:30:09.850Z,83.90
2019-01-02T09:32:43.686Z,83.00
2019-01-02T09:35:34.066Z,83.10
2019-01-02T09:38:12.518Z,82.30
2019-01-02T09:41:08.789Z,82.60
2019-01-02T09:44:05.292Z,82.00
2019-01-02T09:46:43.570Z,81.50
2019-01-02T09:49:20.764Z,81.70
2019-01-02T09:52:06.876Z,81.70
2019-01-02T09:54:45.019Z,81.70
2019-01-02T09:57:47.630Z,82.50
2019-01-02T10:00:36.776Z,82.80
2019-01-02T10:03:13.754Z,82.60
2019-01-02T10:06:16.278Z,83.20
2019-01-02T10:09:02.068Z,83.80
2019-01-02T10:11:36.714Z,83.70
2019-01-02T10:14:23.094Z,83.40
2019-01-02T10:17:09.613Z,83.00
2019-01-02T10:19:52.565Z,83.60
2019-01-02T10:22:30.541Z,82.20
2019-01-02T10:25:17.668Z,82.10
2019-01-02T10:28:04.770Z,82.40
2019-01-02T10:30:41.072Z,82.70
2019-01-02T10:33:17.068Z,83.20
2019-01-02T10:35:51.388Z,82.60
2019-01-02T10:38:37.128Z,84.20
2019-01-02T10:41:19.721Z,84.00
2019-01-02T10:43:58.576Z,84.50
2019-01-02T10:46:31.309Z,82.00
2019-01-02T10:49:19.077Z,82.70
2019-01-02T10:52:15.357Z,82.50
2019-01-02T10:55:08.316Z,81.50
2019-01-02T10:58:07.733Z,80.60
2019-01-02T11:00:53.483Z,79.30
2019-01-02T11:03:27.885Z,79.20
2019-01-02T11:06:13.620Z,79.90
2019-01-02T11:08:53.578Z,79.20
2019-01-02T11:11:40.877Z,80.20
2019-01-02T11:14:24.961Z,79.80
2019-01-02T11:17:08.953Z,78.10
2019-01-02T11:19:56.153Z,78.30
2019-01-02T11:22:28.384Z,78.20
2019-01-02T11:25:01.595Z,79.00
2019-01-02T11:27:41.185Z,77.30
2019-01-02T11:30:17.580Z,77.20
2019-01-02T11:33:13.505Z,77.50
2019-01-02T11:36:10.177Z,78.10
2019-01-02T11:39:04.468Z,77.90
2019-01-02T11:41:50.390Z,78.70
2019-01-02T11:44:25.508Z,79.80
2019-01-02T11:46:53.409Z,81.30
2019-01-02T11:49:21.301Z,81.80
2019-01-02T11:51:49.228Z,82.10
2019-01-02T11:54:17.217Z,82.50
2019-01-02T11:56:45.196Z,82.40
2019-01-02T11:59:20.465Z,80.90
2019-01-02T12:01:48.389Z,81.20
2019-01-02T12:04:16.368Z,79.90
2019-01-02T12:06:44.271Z,78.50
2019-01-02T12:09:12.254Z,78.40
2019-01-02T12:11:40.269Z,77.20
2019-01-02T12:14:08.145Z,76.40
2019-01-02T12:16:36.215Z,74.80
2019-01-02T12:19:04.104Z,74.60
2019-01-02T12:21:32.010Z,76.10
2019-01-02T12:23:59.941Z,76.00
2019-01-02T12:26:27.917Z,76.00
2019-01-02T12:28:56.052Z,76.00
2019-01-02T12:31:24.171Z,75.70
2019-01-02T12:33:52.110Z,77.10
2019-01-02T12:36:20.360Z,75.20
2019-01-02T12:38:48.344Z,75.20
2019-01-02T12:41:16.300Z,73.60
2019-01-02T12:43:44.257Z,71.80
2019-01-02T12:46:12.258Z,70.50
2019-01-02T12:48:40.148Z,70.00
2019-01-02T12:51:08.830Z,70.10
2019-01-02T12:53:36.737Z,69.00
2019-01-02T12:56:04.721Z,68.30
2019-01-02T12:58:32.629Z,68.20
2019-01-02T13:01:03.765Z,68.40
2019-01-02T13:03:45.985Z,68.30
2019-01-02T13:06:24.593Z,66.90
2019-01-02T13:09:13.509Z,66.80
2019-01-02T13:11:59.196Z,67.30
2019-01-02T13:14:50.107Z,69.30
2019-01-02T13:17:33.444Z,69.60
2019-01-02T13:20:19.528Z,68.60
2019-01-02T13:23:15.924Z,67.80
2019-01-02T13:25:55.906Z,68.80
2019-01-02T13:28:28.569Z,66.50
2019-01-02T13:31:21.792Z,67.70
2019-01-02T13:33:58.613Z,68.80
2019-01-02T13:36:36.130Z,71.70
2019-01-02T13:39:14.525Z,74.80
2019-01-02T13:41:54.589Z,77.20
2019-01-02T13:44:26.112Z,78.60
2019-01-02T13:47:16.199Z,80.50
2019-01-02T13:50:12.417Z,82.20
2019-01-02T13:52:40.636Z,82.40
2019-01-02T13:55:10.749Z,83.70
2019-01-02T13:57:38.660Z,82.50
2019-01-02T14:00:07.196Z,82.60
2019-01-02T14:02:35.088Z,82.40
2019-01-02T14:05:03.065Z,81.00
2019-01-02T14:07:31.052Z,81.30
2019-01-02T14:09:58.995Z,81.10
2019-01-02T14:12:26.909Z,80.50
2019-01-02T14:14:54.836Z,80.60
2019-01-02T14:17:22.751Z,80.80
2019-01-02T14:19:51.224Z,80.20
2019-01-02T14:22:19.205Z,80.40
2019-01-02T14:24:47.288Z,80.20
2019-01-02T14:27:15.186Z,79.30
2019-01-02T14:29:43.099Z,79.20
2019-01-02T14:32:11.104Z,80.00
2019-01-02T14:34:39.073Z,79.70
2019-01-02T14:37:06.976Z,79.50
2019-01-02T14:39:34.901Z,79.70
2019-01-02T14:42:02.797Z,80.60
2019-01-02T14:44:30.680Z,80.70
2019-01-02T14:46:58.591Z,81.10
2019-01-02T14:49:26.572Z,81.50
2019-01-02T14:51:54.558Z,80.60
2019-01-02T14:54:22.499Z,79.80
2019-01-02T14:56:50.401Z,79.30
2019-01-02T14:59:18.263Z,79.60
2019-01-02T15:01:46.209Z,79.70
2019-01-02T15:04:14.163Z,80.90
2019-01-02T15:06:42.069Z,80.40
2019-01-02T15:09:09.984Z,80.60
2019-01-02T15:11:37.890Z,81.20
2019-01-02T15:14:06.143Z,80.10
2019-01-02T15:16:34.537Z,80.20
2019-01-02T15:19:02.648Z,79.80
2019-01-02T15:21:30.542Z,80.70
2019-01-02T15:23:58.421Z,81.30
2019-01-02T15:26:26.391Z,81.20
2019-01-02T15:28:54.309Z,81.00
2019-01-02T15:31:22.216Z,81.30
2019-01-02T15:33:50.092Z,82.50
2019-01-02T15:36:18.102Z,84.60
2019-01-02T15:38:45.972Z,85.90
2019-01-02T15:41:13.872Z,86.80
2019-01-02T15:43:41.839Z,88.10
2019-01-02T15:46:09.735Z,88.10
2019-01-02T15:48:37.604Z,88.80
2019-01-02T15:51:05.552Z,89.10
2019-01-02T15:53:33.409Z,89.70
2019-01-02T15:56:01.301Z,90.20
2019-01-02T15:58:29.290Z,90.60
2019-01-02T16:00:57.287Z,91.30
2019-01-02T16:03:25.162Z,91.20
2019-01-02T16:05:53.317Z,91.80
2019-01-02T16:08:21.621Z,92.30
2019-01-02T16:10:49.586Z,92.40
2019-01-02T16:13:17.624Z,92.50
2019-01-02T16:15:45.509Z,92.80
2019-01-02T16:18:13.498Z,93.10
2019-01-02T16:20:41.716Z,92.70
2019-01-02T16:23:09.638Z,92.80
2019-01-02T16:25:37.511Z,92.90
2019-01-02T16:28:05.478Z,93.30
2019-01-02T16:30:33.382Z,93.60
2019-01-02T16:33:01.333Z,93.90
2019-01-02T16:35:29.291Z,94.10
2019-01-02T16:37:57.265Z,94.50
2019-01-02T16:40:25.135Z,94.80
2019-01-02T16:42:53.063Z,94.90
2019-01-02T16:45:21.062Z,94.60
2019-01-02T16:47:49.041Z,94.30
2019-01-02T16:50:16.909Z,94.10
2019-01-02T16:52:44.828Z,94.00
2019-01-02T16:55:12.796Z,93.90
2019-01-02T16:57:40.706Z,94.40
2019-01-02T17:00:10.278Z,94.80
2019-01-02T17:02:38.372Z,95.00
2019-01-02T17:05:06.389Z,94.80
2019-01-02T17:07:34.297Z,94.90
2019-01-02T17:10:02.201Z,94.90
2019-01-02T17:12:31.948Z,95.30
2019-01-02T17:14:59.881Z,95.40
2019-01-02T17:17:27.810Z,95.40
2019-01-02T17:19:55.725Z,95.30
2019-01-02T17:22:23.650Z,95.20
2019-01-02T17:24:51.796Z,95.10
2019-01-02T17:27:19.697Z,94.70
2019-01-02T17:29:47.694Z,94.50
2019-01-02T17:32:15.666Z,94.80
2019-01-02T17:34:43.841Z,95.00
2019-01-02T17:37:11.737Z,95.20
2019-01-02T17:39:39.983Z,95.30
2019-01-02T17:42:08.045Z,95.40
2019-01-02T17:44:35.996Z,95.50
2019-01-02T17:47:04.269Z,95.90
2019-01-02T17:49:32.230Z,95.80
2019-01-02T17:52:03.457Z,95.90
2019-01-02T17:54:31.363Z,96.10
2019-01-02T17:56:59.305Z,96.30
2019-01-02T17:59:27.302Z,96.30
2019-01-02T18:01:55.194Z,96.40
2019-01-02T18:04:23.113Z,96.40
2019-01-02T18:06:51.088Z,96.30
2019-01-02T18:09:19.093Z,96.70
2019-01-02T18:11:47.074Z,97.00
2019-01-02T18:14:14.999Z,97.00
2019-01-02T18:16:42.876Z,96.70
2019-01-02T18:19:10.924Z,96.60
2019-01-02T18:21:38.808Z,96.50
2019-01-02T18:24:07.560Z,96.30
2019-01-02T18:26:35.458Z,96.20
2019-01-02T18:29:03.445Z,96.40
2019-01-02T18:31:31.352Z,96.60
2019-01-02T18:33:59.357Z,96.70
2019-01-02T18:36:27.241Z,96.60
2019-01-02T18:38:55.154Z,96.80
2019-01-02T18:41:23.138Z,96.80
2019-01-02T18:43:51.063Z,96.70
2019-01-02T18:46:18.954Z,96.60
2019-01-02T18:48:46.867Z,96.60
2019-01-02T18:51:14.748Z,96.60
2019-01-02T18:53:42.733Z,96.70
2019-01-02T18:56:10.816Z,96.70
2019-01-02T18:58:39.144Z,96.60
2019-01-02T19:01:07.711Z,96.80
2019-01-02T19:03:35.652Z,96.70
2019-01-02T19:06:03.641Z,96.80
2019-01-02T19:08:31.554Z,96.90
2019-01-02T19:10:59.472Z,97.00
2019-01-02T19:13:27.365Z,97.20
2019-01-02T19:15:55.262Z,97.40
2019-01-02T19:18:23.252Z,97.30
2019-01-02T19:20:51.325Z,97.60
2019-01-02T19:23:19.246Z,97.60
2019-01-02T19:25:47.182Z,97.70
2019-01-02T19:28:15.092Z,97.50
2019-01-02T19:30:43.114Z,97.40
2019-01-02T19:33:10.976Z,97.10
2019-01-02T19:35:38.891Z,97.20
2019-01-02T19:38:06.888Z,97.30
2019-01-02T19:40:34.796Z,97.00
2019-01-02T19:43:02.699Z,97.00
2019-01-02T19:45:30.757Z,97.00
2019-01-02T19:47:58.644Z,97.30
2019-01-02T19:50:26.562Z,97.60
2019-01-02T19:52:54.492Z,97.50
2019-01-02T19:55:22.526Z,97.30
2019-01-02T19:57:50.438Z,97.20
2019-01-02T20:00:18.510Z,97.60
2019-01-02T20:02:46.428Z,97.20
2019-01-02T20:05:14.411Z,97.40
2019-01-02T20:07:42.441Z,97.20
2019-01-02T20:10:10.438Z,97.30
2019-01-02T20:12:38.442Z,97.20
2019-01-02T20:15:08.281Z,97.20
2019-01-02T20:17:38.992Z,97.80
2019-01-02T20:20:06.636Z,97.80
2019-01-02T20:22:34.508Z,98.00
2019-01-02T20:25:02.413Z,97.90
2019-01-02T20:27:30.360Z,97.60
2019-01-02T20:29:58.570Z,97.80
2019-01-02T20:32:26.572Z,97.90
2019-01-02T20:34:54.544Z,97.90
2019-01-02T20:37:22.430Z,98.00
2019-01-02T20:39:50.691Z,97.90
2019-01-02T20:42:18.865Z,97.80
2019-01-02T20:44:46.813Z,98.00
2019-01-02T20:47:14.772Z,97.90
2019-01-02T20:49:43.439Z,97.70
2019-01-02T20:52:11.327Z,97.80
2019-01-02T20:54:39.232Z,97.90
2019-01-02T20:57:07.157Z,97.90
2019-01-02T20:59:35.143Z,97.90
2019-01-02T21:02:03.406Z,97.90
2019-01-02T21:04:31.733Z,98.00
2019-01-02T21:06:59.745Z,98.10
2019-01-02T21:09:27.670Z,98.00
2019-01-02T21:11:55.849Z,98.00
2019-01-02T21:14:24.381Z,98.00
2019-01-02T21:16:52.261Z,98.00
2019-01-02T21:19:20.185Z,97.90
2019-01-02T21:21:48.144Z,98.00
2019-01-02T21:24:16.133Z,97.90
2019-01-02T21:26:44.004Z,98.10
2019-01-02T21:29:11.907Z,98.10
2019-01-02T21:31:39.799Z,98.30
2019-01-02T21:34:08.032Z,98.10
2019-01-02T21:36:35.915Z,98.00
2019-01-02T21:39:05.661Z,98.10
2019-01-02T21:41:33.918Z,98.30
2019-01-02T21:44:01.928Z,98.40
2019-01-02T21:46:30.045Z,98.30
2019-01-02T21:48:58.086Z,98.20
2019-01-02T21:51:26.323Z,98.30
2019-01-02T21:53:54.233Z,98.30
2019-01-02T21:56:22.121Z,98.60
2019-01-02T21:58:50.042Z,98.30
2019-01-02T22:01:18.083Z,98.00
2019-01-02T22:03:46.081Z,97.90
2019-01-02T22:06:13.964Z,98.00
2019-01-02T22:08:41.958Z,98.20
2019-01-02T22:11:10.041Z,98.20
2019-01-02T22:13:38.248Z,98.60
2019-01-02T22:16:06.470Z,98.90
2019-01-02T22:18:34.446Z,98.80
2019-01-02T22:21:02.568Z,98.50
2019-01-02T22:23:30.668Z,98.20
2019-01-02T22:25:58.568Z,98.30
2019-01-02T22:28:26.468Z,98.30
2019-01-02T22:30:54.740Z,98.10
2019-01-02T22:33:22.648Z,98.00
2019-01-02T22:35:50.557Z,97.80
2019-01-02T22:38:18.535Z,97.60
2019-01-02T22:40:47.268Z,97.70
2019-01-02T22:43:15.313Z,97.90
2019-01-02T22:45:43.350Z,97.90
2019-01-02T22:48:11.495Z,97.80
2019-01-02T22:50:39.465Z,97.60
2019-01-02T22:53:07.793Z,97.70
2019-01-02T22:55:36.087Z,97.90
2019-01-02T22:58:04.068Z,97.70
2019-01-02T23:00:51.128Z,98.00
2019-01-02T23:03:34.177Z,98.10
2019-01-02T23:06:33.342Z,98.30
2019-01-02T23:09:19.478Z,98.30
2019-01-02T23:12:08.004Z,98.20
2019-01-02T23:14:59.222Z,98.00
2019-01-02T23:17:45.593Z,98.10
2019-01-02T23:20:41.534Z,98.20
2019-01-02T23:23:32.333Z,98.20
2019-01-02T23:26:18.107Z,98.10
2019-01-02T23:29:12.397Z,98.20
2019-01-02T23:32:05.316Z,98.40
2019-01-02T23:35:06.451Z,98.90
2019-01-02T23:37:59.405Z,98.90
2019-01-02T23:40:52.284Z,98.70
2019-01-02T23:43:39.337Z,98.80
2019-01-02T23:46:25.302Z,99.00
2019-01-02T23:49:15.368Z,99.00
2019-01-02T23:52:02.429Z,98.80
2019-01-02T23:54:49.008Z,98.60
2019-01-02T23:57:31.081Z,98.60
